Time;durP1;ratioP1;P1;durP2;ratioP2;P2;SDS_P1;SDS_P2;PMS_P1;PMS_P2;Temp;Humidity;BMP_temperature;BMP_pressure;BME280_temperature;BME280_humidity;BME280_pressure;Samples;Min_cycle;Max_cycle;Signal;HPM_P1;HPM_P2
2022/03/19 00:01:29;;;;;;;;;15.75;11.75;;;;;9.34;41.27;103260.97;5070878;28;45483;-73
2022/03/19 00:03:54;;;;;;;;;12.00;11.50;;;;;9.19;41.15;103236.19;5080546;28;45265;-73
2022/03/19 00:06:20;;;;;;;;;13.50;12.00;;;;;9.18;41.29;103234.31;5071779;28;45858;-74
2022/03/19 00:08:46;;;;;;;;;10.25;10.25;;;;;9.26;41.01;103250.69;5077334;28;45257;-73
2022/03/19 00:11:11;;;;;;;;;16.75;16.25;;;;;9.29;40.94;103262.38;5072658;28;45306;-73
2022/03/19 00:13:37;;;;;;;;;27.75;21.50;;;;;9.14;40.76;103241.13;5080353;28;45233;-73
2022/03/19 00:16:03;;;;;;;;;11.75;11.75;;;;;9.05;40.85;103234.31;5073995;28;45338;-73
2022/03/19 00:18:28;;;;;;;;;8.25;8.25;;;;;9.15;40.89;103244.69;5080157;28;45557;-72
2022/03/19 00:20:54;;;;;;;;;9.50;9.50;;;;;9.19;40.50;103262.56;5074655;28;46333;-72
2022/03/19 00:23:19;;;;;;;;;14.25;14.25;;;;;9.02;40.82;103236.72;5080382;27;45468;-72
2022/03/19 00:25:45;;;;;;;;;17.75;15.00;;;;;9.07;40.46;103244.13;5075518;27;45367;-72
2022/03/19 00:28:10;;;;;;;;;44.25;40.00;;;;;9.20;40.72;103267.03;5078969;28;45452;-73
2022/03/19 00:30:36;;;;;;;;;10.00;7.75;;;;;9.16;40.44;103258.00;5071694;28;45458;-72
2022/03/19 00:33:01;;;;;;;;;22.50;18.25;;;;;9.21;40.87;103263.56;5080252;27;45302;-73
2022/03/19 00:35:26;;;;;;;;;6.00;5.75;;;;;9.20;40.61;103274.94;5074873;28;45640;-73
2022/03/19 00:37:53;;;;;;;;;9.75;8.00;;;;;9.18;40.46;103263.34;5080782;28;45327;-73
2022/03/19 00:40:22;;;;;;;;;26.25;20.00;;;;;8.95;40.50;103227.47;5070589;27;45994;-73
2022/03/19 00:42:50;;;;;;;;;6.25;6.25;;;;;9.10;40.59;103248.72;5080557;27;45279;-73
2022/03/19 00:45:16;;;;;;;;;10.00;8.75;;;;;9.16;40.31;103260.63;5070659;27;45466;-73
2022/03/19 00:47:42;;;;;;;;;11.25;9.50;;;;;8.94;40.10;103226.56;5079086;28;46227;-73
2022/03/19 00:50:08;;;;;;;;;4.75;3.75;;;;;9.05;40.17;103256.31;5079310;27;46274;-73
2022/03/19 00:52:34;;;;;;;;;7.75;4.25;;;;;9.10;40.36;103261.91;5067312;28;45289;-73
2022/03/19 00:54:59;;;;;;;;;4.25;3.75;;;;;8.44;40.44;103136.91;5070230;28;45504;-73
2022/03/19 00:57:25;;;;;;;;;4.00;4.00;;;;;8.89;40.17;103225.31;5078253;27;45339;-73
2022/03/19 00:59:50;;;;;;;;;3.75;3.00;;;;;9.06;40.32;103249.31;5077941;27;45181;-73
2022/03/19 01:02:16;;;;;;;;;3.00;2.50;;;;;8.83;39.73;103219.63;5079108;28;45663;-73
2022/03/19 01:04:41;;;;;;;;;2.50;2.50;;;;;9.04;39.88;103245.66;5079576;27;45409;-73
2022/03/19 01:07:06;;;;;;;;;3.00;3.00;;;;;9.02;40.39;103247.25;5071427;27;45465;-73
2022/03/19 01:09:32;;;;;;;;;5.75;4.75;;;;;8.99;40.40;103247.03;5079513;28;45134;-73
2022/03/19 01:11:57;;;;;;;;;4.00;3.00;;;;;8.91;40.39;103235.97;5072546;27;45303;-74
2022/03/19 01:14:23;;;;;;;;;3.00;3.00;;;;;8.88;39.88;103233.13;5079477;28;45711;-73
2022/03/19 01:16:48;;;;;;;;;3.00;3.00;;;;;8.73;40.18;103209.22;5078562;28;47512;-74
2022/03/19 01:19:14;;;;;;;;;3.00;2.75;;;;;8.84;40.34;103225.78;5078951;28;46696;-73
2022/03/19 01:21:40;;;;;;;;;2.50;2.50;;;;;8.77;40.06;103219.19;5074807;27;45486;-73
2022/03/19 01:24:06;;;;;;;;;2.50;2.50;;;;;8.82;40.15;103230.97;5066914;28;45320;-74
2022/03/19 01:26:32;;;;;;;;;4.00;2.75;;;;;8.84;40.27;103233.72;5071478;28;45381;-73
2022/03/19 01:28:58;;;;;;;;;3.00;1.00;;;;;8.82;39.93;103235.31;5078721;28;46053;-73
2022/03/19 01:31:26;;;;;;;;;3.00;2.25;;;;;8.55;40.33;103194.75;5071240;28;45267;-73
2022/03/19 01:33:54;;;;;;;;;3.00;3.00;;;;;8.73;39.70;103228.56;5078949;27;45264;-73
2022/03/19 01:36:20;;;;;;;;;2.00;1.00;;;;;8.72;40.21;103224.13;5070642;27;45531;-74
2022/03/19 01:38:45;;;;;;;;;4.00;2.00;;;;;8.64;40.15;103212.13;5078224;27;46061;-73
2022/03/19 01:41:11;;;;;;;;;3.50;3.00;;;;;8.41;40.00;103185.84;5070719;28;45358;-73
2022/03/19 01:43:37;;;;;;;;;3.00;1.75;;;;;8.68;40.21;103223.78;5078294;27;45323;-74
2022/03/19 01:46:03;;;;;;;;;4.00;4.00;;;;;8.48;39.77;103186.38;5068360;28;45402;-73
2022/03/19 01:48:28;;;;;;;;;3.75;3.75;;;;;8.60;40.09;103206.50;5072595;28;45504;-74
2022/03/19 01:50:54;;;;;;;;;6.25;3.00;;;;;8.63;40.20;103215.56;5073310;28;45219;-74
2022/03/19 01:53:19;;;;;;;;;2.50;2.50;;;;;8.60;40.14;103219.69;5070629;28;45315;-73
2022/03/19 01:55:45;;;;;;;;;4.50;3.00;;;;;8.61;40.07;103211.00;5075550;28;45233;-73
2022/03/19 01:58:10;;;;;;;;;3.00;3.00;;;;;8.58;40.04;103213.41;5078128;27;46137;-74
2022/03/19 02:00:37;;;;;;;;;4.25;2.00;;;;;8.56;40.13;103202.75;5074743;28;45401;-74
2022/03/19 02:03:03;;;;;;;;;3.00;2.00;;;;;8.55;40.30;103200.03;5073012;28;45275;-73
2022/03/19 02:05:29;;;;;;;;;0.25;0.25;;;;;8.41;40.39;103178.84;5076002;28;45553;-73
2022/03/19 02:07:55;;;;;;;;;0.00;0.00;;;;;8.51;40.53;103201.50;5073171;28;45391;-73
2022/03/19 02:10:22;;;;;;;;;2.50;2.50;;;;;8.49;40.36;103198.78;5076800;28;45549;-73
2022/03/19 02:12:50;;;;;;;;;2.75;2.75;;;;;8.44;40.12;103192.25;5073138;28;45276;-74
2022/03/19 02:15:15;;;;;;;;;2.50;2.50;;;;;8.47;40.13;103196.81;5070219;28;46119;-73
2022/03/19 02:17:42;;;;;;;;;2.25;2.25;;;;;8.45;40.10;103186.16;5072719;28;45626;-74
2022/03/19 02:20:08;;;;;;;;;5.75;3.00;;;;;8.35;40.48;103186.28;5071094;28;45966;-73
2022/03/19 02:22:34;;;;;;;;;6.50;2.75;;;;;8.27;40.47;103159.38;5073506;27;45518;-73
2022/03/19 02:27:44;;;;;;;;;5.50;4.00;;;;;8.40;40.12;103189.28;5075616;28;45333;-73
2022/03/19 02:30:12;;;;;;;;;4.00;2.00;;;;;8.22;41.07;103158.13;5073618;28;45286;-73
2022/03/19 02:32:39;;;;;;;;;3.75;3.50;;;;;8.33;40.26;103169.44;5078872;28;45317;-73
2022/03/19 02:35:06;;;;;;;;;2.50;2.00;;;;;8.29;40.62;103159.50;5069689;28;45259;-74
2022/03/19 02:37:43;;;;;;;;;4.75;4.00;;;;;8.27;40.65;103150.56;5078300;28;45430;-73
2022/03/19 02:40:11;;;;;;;;;3.75;2.00;;;;;8.27;40.81;103162.03;5069010;28;45375;-73
2022/03/19 02:42:37;;;;;;;;;6.75;3.00;;;;;8.27;40.80;103166.38;5077593;28;45435;-73
2022/03/19 02:45:05;;;;;;;;;5.25;4.00;;;;;7.94;40.66;103110.47;5073185;28;47435;-73
2022/03/19 02:47:31;;;;;;;;;6.00;4.50;;;;;8.11;41.04;103137.09;5078040;28;45419;-73
2022/03/19 02:49:57;;;;;;;;;3.00;3.00;;;;;8.18;41.08;103142.03;5078476;27;45493;-73
2022/03/19 02:52:22;;;;;;;;;3.50;3.50;;;;;8.29;40.90;103159.50;5070553;28;45211;-73
2022/03/19 02:54:47;;;;;;;;;9.50;3.75;;;;;8.26;41.29;103161.91;5079313;28;45232;-74
2022/03/19 02:57:13;;;;;;;;;4.00;4.00;;;;;8.16;41.16;103141.00;5080514;28;45278;-74
2022/03/19 02:59:38;;;;;;;;;5.75;3.00;;;;;8.16;41.29;103157.69;5081094;27;45315;-73
2022/03/19 03:02:05;;;;;;;;;7.50;4.00;;;;;8.19;41.65;103164.91;5072814;28;45429;-73
2022/03/19 03:04:32;;;;;;;;;4.00;1.00;;;;;8.17;41.88;103155.97;5081561;28;45380;-73
2022/03/19 03:06:59;;;;;;;;;8.75;5.25;;;;;8.13;41.88;103156.56;5073629;27;46365;-74
2022/03/19 03:09:26;;;;;;;;;3.50;2.50;;;;;8.10;41.55;103165.16;5081232;28;45349;-73
2022/03/19 03:11:52;;;;;;;;;3.75;3.75;;;;;8.08;41.83;103158.88;5075091;27;45224;-73
2022/03/19 03:14:20;;;;;;;;;3.25;3.00;;;;;8.08;41.37;103158.88;5080764;28;45779;-73
2022/03/19 03:16:51;;;;;;;;;6.50;3.50;;;;;8.00;42.05;103147.78;5076624;27;46216;-73
2022/03/19 03:19:17;;;;;;;;;9.00;7.00;;;;;7.99;42.12;103150.31;5079493;28;45407;-73
2022/03/19 03:21:44;;;;;;;;;3.00;1.00;;;;;8.02;41.67;103163.69;5074532;28;45201;-73
2022/03/19 03:24:11;;;;;;;;;3.75;3.75;;;;;7.99;41.80;103161.75;5078999;28;47033;-73
2022/03/19 03:26:37;;;;;;;;;9.00;7.00;;;;;7.95;42.85;103153.50;5073454;28;45480;-73
2022/03/19 03:29:03;;;;;;;;;9.25;4.00;;;;;7.85;42.97;103144.94;5080417;27;45363;-74
2022/03/19 03:31:28;;;;;;;;;8.75;4.50;;;;;7.84;42.10;103140.50;5072700;27;45320;-73
2022/03/19 03:33:55;;;;;;;;;7.50;7.50;;;;;7.65;42.96;103096.91;5080789;27;45580;-74
2022/03/19 03:36:21;;;;;;;;;10.00;4.75;;;;;7.91;42.57;103138.31;5072299;27;45660;-73
2022/03/19 03:38:47;;;;;;;;;11.50;7.75;;;;;7.85;42.69;103134.41;5079210;28;45328;-73
2022/03/19 03:41:12;;;;;;;;;7.25;5.75;;;;;7.90;42.56;103137.38;5070286;28;45225;-73
2022/03/19 03:43:38;;;;;;;;;13.75;8.75;;;;;7.83;43.02;103127.19;5076077;28;45417;-73
2022/03/19 03:46:06;;;;;;;;;8.25;8.25;;;;;7.71;43.46;103113.16;5070033;28;46100;-73
2022/03/19 03:48:35;;;;;;;;;9.00;7.00;;;;;7.78;43.27;103115.41;5074889;28;44970;-73
2022/03/19 03:51:01;;;;;;;;;11.00;8.00;;;;;7.78;43.24;103115.41;5070106;28;45260;-73
2022/03/19 03:53:28;;;;;;;;;9.00;8.00;;;;;7.65;43.08;103097.81;5074704;28;45228;-73
2022/03/19 03:55:54;;;;;;;;;10.00;9.00;;;;;7.77;43.94;103129.41;5078187;27;47284;-73
2022/03/19 03:58:20;;;;;;;;;14.00;9.00;;;;;7.67;43.78;103111.09;5079988;27;45481;-73
2022/03/19 04:00:45;;;;;;;;;11.25;9.00;;;;;7.58;43.54;103083.28;5076086;28;45496;-74
2022/03/19 04:03:11;;;;;;;;;9.75;9.75;;;;;7.68;44.26;103115.56;5075973;28;45376;-74
2022/03/19 04:05:37;;;;;;;;;13.75;10.25;;;;;7.74;43.68;103119.56;5077091;28;45461;-73
2022/03/19 04:08:04;;;;;;;;;13.00;12.00;;;;;7.61;44.16;103099.28;5066809;28;45351;-73
2022/03/19 04:10:30;;;;;;;;;18.25;13.00;;;;;7.73;43.85;103124.69;5071307;28;45359;-73
2022/03/19 04:12:55;;;;;;;;;13.25;11.75;;;;;7.53;44.31;103091.66;5076824;28;45344;-73
2022/03/19 04:15:21;;;;;;;;;14.25;12.00;;;;;7.71;44.74;103128.94;5079955;28;45723;-74
2022/03/19 04:17:46;;;;;;;;;14.50;12.75;;;;;7.69;44.55;103130.53;5081014;28;45213;-73
2022/03/19 04:20:13;;;;;;;;;15.00;12.75;;;;;7.39;45.18;103085.38;5080143;27;45208;-73
2022/03/19 04:22:41;;;;;;;;;13.00;11.25;;;;;7.65;44.78;103129.41;5076513;28;45323;-73
2022/03/19 04:25:15;;;;;;;;;13.25;11.25;;;;;7.63;45.74;103126.66;5071653;28;45645;-73
2022/03/19 04:27:41;;;;;;;;;15.50;10.00;;;;;7.61;45.52;103123.00;5093197;27;45322;-73
2022/03/19 04:30:11;;;;;;;;;13.75;11.00;;;;;7.39;45.01;103088.94;5071763;27;45472;-73
2022/03/19 04:32:41;;;;;;;;;15.75;11.25;;;;;7.61;45.50;103128.25;5078084;28;45273;-73
2022/03/19 04:36:29;;;;;;;;;17.50;14.75;;;;;7.54;45.48;103120.72;5071658;28;45331;-74
2022/03/19 04:37:53;;;;;;;;;13.50;10.75;;;;;7.38;45.50;103091.44;5067875;28;45421;-73
2022/03/19 04:40:18;;;;;;;;;16.75;13.00;;;;;7.54;45.27;103120.72;5075478;27;45498;-73
2022/03/19 04:42:43;;;;;;;;;18.00;15.00;;;;;7.30;46.24;103082.97;5079231;28;45813;-73
2022/03/19 04:45:09;;;;;;;;;17.50;14.50;;;;;7.50;45.11;103121.28;5074981;27;48166;-73
2022/03/19 04:47:34;;;;;;;;;19.50;16.75;;;;;7.55;46.04;103135.69;5067713;27;45209;-73
2022/03/19 04:50:04;;;;;;;;;22.00;16.25;;;;;7.32;46.98;103094.53;5077623;28;45292;-73
2022/03/19 04:52:30;;;;;;;;;17.75;14.00;;;;;7.46;46.50;103127.13;5068285;27;45391;-73
2022/03/19 04:55:00;;;;;;;;;19.00;14.50;;;;;7.51;46.24;103127.50;5077424;28;45272;-73
2022/03/19 04:57:26;;;;;;;;;18.75;16.00;;;;;7.43;46.08;103119.00;5078953;27;45247;-73
2022/03/19 04:59:51;;;;;;;;;24.25;16.75;;;;;7.48;46.78;103132.50;5078513;27;45244;-73
2022/03/19 05:02:17;;;;;;;;;18.25;16.75;;;;;7.46;47.34;103123.59;5080222;28;45463;-73
2022/03/19 05:04:42;;;;;;;;;20.25;17.25;;;;;6.57;47.39;102978.47;5079376;28;46200;-73
2022/03/19 05:07:07;;;;;;;;;23.25;19.00;;;;;7.39;47.22;103120.50;5071920;27;45236;-73
2022/03/19 05:12:31;;;;;;;;;28.75;22.00;;;;;7.30;47.41;103116.25;5072581;28;45216;-74
2022/03/19 05:14:56;;;;;;;;;25.75;19.50;;;;;7.28;47.03;103103.00;5078985;28;45338;-73
2022/03/19 05:17:21;;;;;;;;;24.00;18.25;;;;;7.24;47.95;103106.19;5074595;27;45384;-73
2022/03/19 05:19:47;;;;;;;;;23.50;20.50;;;;;7.15;47.94;103105.50;5072571;28;45313;-73
2022/03/19 05:22:12;;;;;;;;;21.75;20.00;;;;;7.12;47.63;103093.03;5080358;27;46210;-73
2022/03/19 05:24:37;;;;;;;;;29.50;18.50;;;;;7.07;49.02;103106.66;5074936;27;45429;-73
2022/03/19 05:27:03;;;;;;;;;25.25;20.00;;;;;7.20;48.08;103122.56;5073718;28;45256;-74
2022/03/19 05:29:31;;;;;;;;;25.00;21.50;;;;;7.16;48.50;103131.00;5073463;28;45446;-73
2022/03/19 05:31:56;;;;;;;;;27.00;19.75;;;;;6.97;48.79;103105.00;5080041;27;45180;-73
2022/03/19 05:34:31;;;;;;;;;27.00;23.25;;;;;6.97;49.41;103101.47;5076690;28;46363;-73
2022/03/19 05:36:58;;;;;;;;;29.00;24.75;;;;;7.07;49.22;103128.59;5074023;28;46166;-73
2022/03/19 05:39:24;;;;;;;;;26.25;20.75;;;;;6.70;48.01;103053.91;5074738;28;45221;-73
2022/03/19 05:41:49;;;;;;;;;18.75;18.75;;;;;7.04;48.81;103128.38;5066212;28;45424;-73
2022/03/19 05:44:14;;;;;;;;;28.75;21.50;;;;;6.89;49.15;103106.16;5074021;28;46261;-73
2022/03/19 05:46:40;;;;;;;;;23.50;21.50;;;;;6.99;49.84;103126.19;5067446;28;45292;-73
2022/03/19 05:49:05;;;;;;;;;21.00;19.50;;;;;6.93;48.16;103105.59;5071213;28;45353;-73
2022/03/19 05:51:30;;;;;;;;;29.50;18.75;;;;;6.95;48.80;103115.44;5068208;28;45571;-73
2022/03/19 05:53:56;;;;;;;;;19.00;17.25;;;;;6.86;49.29;103105.91;5074223;28;47081;-73
2022/03/19 05:56:24;;;;;;;;;26.00;23.75;;;;;6.77;50.01;103092.06;5077990;27;45225;-73
2022/03/19 05:58:50;;;;;;;;;23.00;19.75;;;;;6.90;49.60;103118.50;5078472;27;45449;-73
2022/03/19 06:01:15;;;;;;;;;28.50;24.00;;;;;6.79;49.44;103109.81;5070897;28;45389;-73
2022/03/19 06:03:41;;;;;;;;;30.00;23.50;;;;;6.84;49.65;103125.94;5076527;28;45936;-74
2022/03/19 06:06:06;;;;;;;;;25.75;20.75;;;;;6.80;49.99;103121.22;5071861;27;45438;-73
2022/03/19 06:08:32;;;;;;;;;30.00;26.00;;;;;6.73;50.76;103118.13;5077953;28;45642;-73
2022/03/19 06:10:58;;;;;;;;;37.75;32.25;;;;;6.52;51.10;103079.66;5073033;27;45290;-74
2022/03/19 06:13:25;;;;;;;;;36.00;30.75;;;;;6.60;49.77;103093.41;5076713;28;46171;-73
2022/03/19 06:15:50;;;;;;;;;49.50;38.25;;;;;6.35;50.74;103059.06;5075502;28;45357;-74
2022/03/19 06:18:17;;;;;;;;;38.00;35.25;;;;;6.62;50.82;103098.00;5076422;28;45360;-73
2022/03/19 06:20:43;;;;;;;;;63.25;46.50;;;;;6.57;52.53;103098.44;5074776;28;45346;-74
2022/03/19 06:23:08;;;;;;;;;44.50;36.25;;;;;6.76;51.09;103133.22;5077563;28;46022;-73
2022/03/19 06:25:35;;;;;;;;;89.33;73.33;;;;;6.76;51.44;103129.69;5067093;28;45680;-73
2022/03/19 06:28:01;;;;;;;;;46.00;36.25;;;;;6.78;51.45;103120.19;5077868;28;45580;-73
2022/03/19 06:30:26;;;;;;;;;49.25;39.00;;;;;6.79;50.64;103129.91;5069206;28;45870;-73
2022/03/19 06:32:52;;;;;;;;;66.75;52.25;;;;;6.58;51.73;103095.00;5078733;28;45212;-73
2022/03/19 06:37:19;;;;;;;;;43.25;35.75;;;;;6.74;50.99;103116.41;5073757;28;45232;-73
2022/03/19 06:38:02;;;;;;;;;48.75;39.25;;;;;6.59;52.02;103087.25;5067192;28;45433;-73
2022/03/19 06:40:28;;;;;;;;;58.25;46.00;;;;;6.78;52.38;103110.59;5068830;27;45639;-73
2022/03/19 06:42:54;;;;;;;;;56.50;44.00;;;;;6.82;51.01;103117.00;5079236;27;45599;-73
2022/03/19 06:45:19;;;;;;;;;56.00;43.00;;;;;6.88;52.88;103123.63;5072784;27;45448;-73
2022/03/19 06:47:45;;;;;;;;;56.50;43.75;;;;;6.86;52.66;103109.47;5067082;28;45445;-73
2022/03/19 06:50:10;;;;;;;;;41.00;35.75;;;;;6.42;52.56;103025.53;5078407;28;45592;-72
2022/03/19 06:52:35;;;;;;;;;54.75;42.25;;;;;6.72;53.00;103073.31;5078128;28;47298;-72
2022/03/19 06:55:02;;;;;;;;;73.75;55.75;;;;;6.90;52.53;103110.63;5077096;28;45334;-73
2022/03/19 06:57:27;;;;;;;;;60.25;48.25;;;;;6.89;53.09;103104.47;5077605;27;45521;-74
2022/03/19 06:59:53;;;;;;;;;39.25;30.50;;;;;6.81;52.66;103075.75;5077812;27;45343;-73
2022/03/19 07:02:18;;;;;;;;;59.50;43.50;;;;;6.71;52.54;103051.38;5069114;27;45483;-74
2022/03/19 07:04:44;;;;;;;;;61.00;48.25;;;;;6.92;53.65;103081.03;5069352;28;45433;-74
2022/03/19 07:07:10;;;;;;;;;34.75;31.75;;;;;6.97;53.80;103083.97;5070630;27;45418;-74
2022/03/19 07:09:35;;;;;;;;;56.75;48.00;;;;;7.18;54.02;103097.84;5077827;28;45403;-73
2022/03/19 07:12:00;;;;;;;;;56.00;45.50;;;;;7.34;52.38;103090.31;5071550;27;45406;-74
2022/03/19 07:14:26;;;;;;;;;47.25;39.50;;;;;7.02;54.06;103027.41;5077624;28;45226;-74
2022/03/19 07:16:51;;;;;;;;;60.25;45.50;;;;;7.66;52.51;103120.72;5072514;27;45470;-73
2022/03/19 07:19:16;;;;;;;;;77.25;61.75;;;;;7.66;52.96;103102.28;5077354;28;45405;-74
2022/03/19 07:21:42;;;;;;;;;65.75;52.50;;;;;7.43;52.52;103039.16;5073701;27;45359;-74
2022/03/19 07:24:07;;;;;;;;;56.75;44.75;;;;;7.82;52.21;103078.91;5077939;28;45222;-74
2022/03/19 07:26:33;;;;;;;;;51.25;38.00;;;;;8.16;52.11;103117.28;5069420;27;45182;-74
2022/03/19 07:28:59;;;;;;;;;55.25;44.50;;;;;8.28;51.79;103123.41;5077087;27;45567;-74
2022/03/19 07:31:25;;;;;;;;;70.75;55.00;;;;;7.94;51.57;103036.72;5069121;28;45965;-74
2022/03/19 07:33:50;;;;;;;;;60.00;44.75;;;;;8.55;51.57;103120.94;5077471;27;45515;-74
2022/03/19 07:36:19;;;;;;;;;60.75;49.25;;;;;8.54;51.39;103101.53;5070756;27;45373;-74
2022/03/19 07:38:45;;;;;;;;;65.50;53.00;;;;;8.64;51.74;103108.38;5081057;28;45362;-74
2022/03/19 07:43:54;;;;;;;;;64.75;48.25;;;;;8.70;50.50;103075.44;5078600;28;45337;-73
2022/03/19 07:46:20;;;;;;;;;59.25;42.00;;;;;9.01;50.62;103109.16;5071311;28;45472;-73
2022/03/19 07:48:46;;;;;;;;;61.00;46.00;;;;;9.01;50.49;103088.06;5080667;28;45277;-73
2022/03/19 07:51:12;;;;;;;;;70.25;53.00;;;;;9.00;51.18;103104.72;5073844;28;45240;-73
2022/03/19 07:53:37;;;;;;;;;61.50;48.00;;;;;8.91;50.34;103065.44;5076486;28;45385;-73
2022/03/19 07:56:03;;;;;;;;;54.75;42.00;;;;;9.01;50.40;103066.06;5081312;27;45430;-74
2022/03/19 07:58:28;;;;;;;;;72.25;56.50;;;;;9.26;50.63;103093.25;5080270;27;45295;-74
2022/03/19 08:00:54;;;;;;;;;58.75;46.75;;;;;9.49;50.85;103110.63;5075653;27;45413;-73
2022/03/19 08:03:20;;;;;;;;;46.50;37.00;;;;;9.48;49.69;103089.41;5075998;28;45363;-74
2022/03/19 08:05:46;;;;;;;;;59.75;45.00;;;;;9.63;50.07;103095.69;5076934;27;45584;-73
2022/03/19 08:08:11;;;;;;;;;61.50;49.75;;;;;9.87;49.54;103106.94;5077475;28;45459;-74
2022/03/19 08:10:37;;;;;;;;;65.50;51.00;;;;;10.00;49.35;103111.28;5070747;28;47829;-73
2022/03/19 08:13:06;;;;;;;;;59.75;45.50;;;;;9.96;48.94;103081.09;5077690;28;45323;-74
2022/03/19 08:15:32;;;;;;;;;57.00;45.25;;;;;10.30;49.20;103109.66;5078238;28;45409;-73
2022/03/19 08:17:59;;;;;;;;;59.25;47.75;;;;;10.38;48.35;103110.16;5077684;28;45273;-73
2022/03/19 08:20:25;;;;;;;;;64.25;46.75;;;;;10.35;48.69;103091.47;5073287;28;47190;-73
2022/03/19 08:22:51;;;;;;;;;60.00;46.50;;;;;10.23;48.55;103076.63;5081127;28;45382;-74
2022/03/19 08:25:16;;;;;;;;;59.25;45.50;;;;;10.18;48.06;103040.16;5071343;27;45578;-73
2022/03/19 08:27:42;;;;;;;;;54.75;43.50;;;;;10.48;48.51;103076.44;5080874;27;44811;-73
2022/03/19 08:30:08;;;;;;;;;64.00;49.25;;;;;10.74;48.26;103087.69;5072082;27;45583;-73
2022/03/19 08:32:34;;;;;;;;;65.50;49.25;;;;;10.83;47.79;103079.41;5079821;28;45296;-73
2022/03/19 08:35:00;;;;;;;;;56.75;46.50;;;;;11.09;47.42;103091.53;5075794;28;45246;-73
2022/03/19 08:37:26;;;;;;;;;63.25;48.75;;;;;11.18;47.13;103090.34;5080791;27;45224;-73
2022/03/19 08:42:36;;;;;;;;;67.25;50.50;;;;;11.41;47.40;103070.50;5067309;28;45260;-73
2022/03/19 08:45:02;;;;;;;;;71.25;53.50;;;;;11.44;46.16;103051.22;5076111;28;45269;-73
2022/03/19 08:47:29;;;;;;;;;60.25;48.00;;;;;11.65;46.19;103080.69;5068069;28;45237;-74
2022/03/19 08:49:55;;;;;;;;;44.00;37.25;;;;;11.56;46.02;103064.25;5072839;28;45367;-73
2022/03/19 08:52:20;;;;;;;;;63.25;47.50;;;;;11.54;45.54;103069.47;5069451;28;45241;-74
2022/03/19 08:54:45;;;;;;;;;54.25;46.50;;;;;11.39;46.31;103039.44;5078940;28;45166;-73
2022/03/19 08:57:11;;;;;;;;;55.00;43.25;;;;;11.34;46.45;103043.56;5079330;27;45513;-73
2022/03/19 08:59:37;;;;;;;;;66.25;50.00;;;;;11.49;46.18;103056.78;5079594;27;45275;-74
2022/03/19 09:02:02;;;;;;;;;76.00;57.25;;;;;11.65;46.42;103084.22;5077695;28;45330;-74
2022/03/19 09:04:28;;;;;;;;;63.50;49.00;;;;;11.59;46.07;103051.16;5079755;28;45457;-74
2022/03/19 09:06:53;;;;;;;;;59.00;48.75;;;;;11.56;45.43;103088.06;5072604;27;45900;-74
2022/03/19 09:09:19;;;;;;;;;64.75;50.00;;;;;11.53;46.22;103048.19;5079388;28;45540;-74
2022/03/19 09:11:45;;;;;;;;;70.50;53.75;;;;;11.72;45.44;103079.28;5073682;28;45239;-74
2022/03/19 09:14:11;;;;;;;;;65.25;46.50;;;;;11.70;45.48;103060.63;5079509;28;45395;-74
2022/03/19 09:16:37;;;;;;;;;54.50;37.50;;;;;11.97;45.25;103077.19;5075003;28;45332;-74
2022/03/19 09:19:04;;;;;;;;;64.75;49.00;;;;;12.00;45.55;103056.16;5079522;28;45320;-74
2022/03/19 09:21:29;;;;;;;;;54.75;44.25;;;;;12.36;44.42;103084.59;5071059;27;45394;-74
2022/03/19 09:23:57;;;;;;;;;66.50;51.00;;;;;12.41;44.64;103041.56;5076664;28;45421;-74
2022/03/19 09:26:23;;;;;;;;;57.00;45.25;;;;;12.91;44.75;103069.81;5070823;27;45414;-74
2022/03/19 09:28:49;;;;;;;;;67.25;52.00;;;;;13.02;44.13;103043.78;5078942;27;46363;-74
2022/03/19 09:31:17;;;;;;;;;61.75;48.25;;;;;13.30;42.82;103072.66;5076701;28;45268;-74
2022/03/19 09:33:46;;;;;;;;;62.00;47.50;;;;;13.36;42.97;103042.84;5079193;27;45210;-74
2022/03/19 09:36:15;;;;;;;;;62.75;46.75;;;;;13.26;42.11;103041.50;5070991;28;45360;-74
2022/03/19 09:38:40;;;;;;;;;63.00;46.75;;;;;13.45;42.76;103031.78;5077817;28;46543;-74
2022/03/19 09:41:07;;;;;;;;;65.00;50.00;;;;;13.63;42.75;103056.56;5068915;28;45397;-74
2022/03/19 09:43:33;;;;;;;;;61.50;48.75;;;;;13.56;42.00;103059.78;5073123;28;45272;-73
2022/03/19 09:45:58;;;;;;;;;63.00;48.75;;;;;13.57;42.25;103058.94;5073066;28;45284;-74
2022/03/19 09:48:24;;;;;;;;;66.00;50.00;;;;;13.60;41.93;103054.66;5072759;28;46297;-73
2022/03/19 09:50:51;;;;;;;;;59.75;47.75;;;;;13.56;41.80;103039.44;5074605;28;45355;-73
2022/03/19 09:53:20;;;;;;;;;67.25;51.50;;;;;13.52;41.73;103032.13;5072949;28;45372;-73
2022/03/19 09:55:46;;;;;;;;;64.25;49.25;;;;;13.69;41.37;103035.59;5078498;28;45218;-73
2022/03/19 09:58:13;;;;;;;;;59.75;48.50;;;;;13.95;40.88;103033.22;5078641;27;46338;-74
2022/03/19 10:00:38;;;;;;;;;61.00;47.25;;;;;14.07;39.84;103016.09;5075486;28;45189;-73
2022/03/19 10:03:09;;;;;;;;;56.75;45.75;;;;;14.46;40.44;103026.72;5072539;28;45215;-74
2022/03/19 10:08:36;;;;;;;;;60.75;46.00;;;;;14.80;38.03;102996.25;5076768;28;45217;-74
2022/03/19 10:11:12;;;;;;;;;66.00;49.25;;;;;15.15;37.90;103023.44;5072435;28;45478;-73
2022/03/19 10:13:42;;;;;;;;;59.50;47.50;;;;;15.33;38.03;102988.66;5066176;28;45378;-73
2022/03/19 10:16:08;;;;;;;;;62.75;49.00;;;;;15.55;37.69;103017.97;5073349;28;46092;-74
2022/03/19 10:18:34;;;;;;;;;51.50;43.00;;;;;15.69;37.18;103009.66;5077167;28;47212;-73
2022/03/19 10:21:02;;;;;;;;;60.25;49.25;;;;;15.82;37.00;103010.19;5070304;27;45367;-73
2022/03/19 10:23:36;;;;;;;;;62.00;47.75;;;;;16.02;35.96;103005.59;5077445;28;45482;-73
2022/03/19 10:26:02;;;;;;;;;51.25;44.00;;;;;16.24;36.51;103001.03;5068471;28;46132;-74
2022/03/19 10:28:33;;;;;;;;;55.50;44.25;;;;;16.61;36.69;102991.66;5076953;28;47567;-74
2022/03/19 10:30:59;;;;;;;;;59.75;46.00;;;;;16.39;33.89;102952.66;5068387;28;45324;-74
2022/03/19 10:33:27;;;;;;;;;57.75;45.50;;;;;16.78;34.75;102967.41;5078723;27;45237;-74
2022/03/19 10:36:05;;;;;;;;;57.75;45.75;;;;;17.03;35.40;102976.22;5067957;28;45391;-74
2022/03/19 10:38:43;;;;;;;;;58.00;44.75;;;;;17.15;34.97;102992.66;5077442;28;46510;-73
2022/03/19 10:41:09;;;;;;;;;62.00;48.25;;;;;17.11;33.62;102989.81;5074106;28;45353;-73
2022/03/19 10:43:35;;;;;;;;;55.00;42.75;;;;;17.19;33.74;102985.63;5078428;27;45424;-75
2022/03/19 10:46:03;;;;;;;;;57.75;46.50;;;;;17.17;34.09;102956.19;5074760;27;45398;-74
2022/03/19 10:48:29;;;;;;;;;59.00;48.00;;;;;17.26;32.68;102978.72;5074651;28;47423;-75
2022/03/19 10:50:55;;;;;;;;;53.00;40.50;;;;;16.98;32.03;102985.84;5073641;28;45465;-73
2022/03/19 10:53:23;;;;;;;;;54.00;43.25;;;;;17.19;33.20;102977.59;5072832;28;45272;-74
2022/03/19 10:55:48;;;;;;;;;55.25;44.50;;;;;17.37;33.58;102972.84;5077825;27;45221;-74
2022/03/19 10:58:14;;;;;;;;;54.50;43.75;;;;;17.51;32.95;102980.41;5078133;27;46208;-75
2022/03/19 11:00:40;;;;;;;;;53.50;44.00;;;;;17.66;31.96;102956.78;5075598;28;45307;-75
2022/03/19 11:03:18;;;;;;;;;58.25;44.00;;;;;17.53;31.15;102950.19;5072894;28;45865;-75
2022/03/19 11:05:44;;;;;;;;;52.25;40.25;;;;;17.85;31.34;102963.63;5071399;28;46990;-74
2022/03/19 11:08:12;;;;;;;;;54.25;43.25;;;;;18.10;31.81;102973.25;5077199;28;47259;-74
2022/03/19 11:10:38;;;;;;;;;72.25;61.25;;;;;17.89;31.51;102920.91;5075309;28;45422;-74
2022/03/19 11:13:06;;;;;;;;;55.25;44.50;;;;;17.88;30.97;102937.84;5079544;28;45312;-73
2022/03/19 11:15:35;;;;;;;;;52.50;42.75;;;;;17.85;30.33;102967.19;5072130;28;45783;-74
2022/03/19 11:18:05;;;;;;;;;56.75;44.00;;;;;17.84;29.99;102954.69;5081978;27;46394;-74
2022/03/19 11:20:31;;;;;;;;;52.25;40.50;;;;;17.74;30.67;102944.53;5072310;28;45352;-74
2022/03/19 11:22:59;;;;;;;;;54.00;43.00;;;;;17.65;30.38;102894.38;5082218;27;45341;-74
2022/03/19 11:25:27;;;;;;;;;60.50;48.75;;;;;17.99;30.31;102945.28;5072048;27;45297;-74
2022/03/19 11:28:06;;;;;;;;;56.50;46.00;;;;;17.93;30.15;102913.00;5081718;27;46086;-74
2022/03/19 11:30:45;;;;;;;;;53.25;43.25;;;;;18.38;30.32;102931.19;5072290;27;45347;-74